To NAV CANADA Home Page Login to a new session Search on AWWS site Disclaimer Vers la page française équivalente Tips FAQ What's new on the site To the Forecasts and Observations / NOTAM section To "File a Flight Plan" website Publications and other links Update of the User's profile FIC Telephone Numbers My Weather Data Folder Route Weather Data Regional Weather Data Local Weather Data To the Forecasts and Observations / NOTAM section
Request Generated 04/24/2019 at 16:34:50 UTC . Weather information available at that time is displayed.

METAR/TAF

FORT LIARD/NT    (show WxCam)

METAR CYJF 241600Z 24010G20KT 15SM FEW150 SCT180 BKN240 06/M12 A2988 RMK AS2AC2CI2 SLP127=
METAR CYJF 241500Z 24011G21KT 210V290 15SM FEW140 SCT180 BKN240 05/M11 A2986 RMK AS2AC2CI3 SLP121=
METAR CYJF 241400Z 24012G20KT 15SM FEW140 SCT180 BKN240 05/M10 A2985 RMK AS1AC2CI3 S0 AFT 12UTC/0/SNW CVR/NIL SLP115=

CYJF - No TAF is issued for this station

Your time UTC time
Weather data provided by Environment Canada and NAV CANADA